Time;durP1;ratioP1;P1;durP2;ratioP2;P2;SDS_P1;SDS_P2;PMS_P1;PMS_P2;Temp;Humidity;BMP_temperature;BMP_pressure;BME280_temperature;BME280_humidity;BME280_pressure;Samples;Min_cycle;Max_cycle;Signal;HPM_P1;HPM_P2
2022/04/17 00:00:55;;;;;;;13.95;8.55;;;;;;;2.72;62.55;100052.03;4863208;29;20409;-83
2022/04/17 00:03:24;;;;;;;17.20;9.75;;;;;;;2.73;62.75;100046.69;4863064;29;20104;-82
2022/04/17 00:05:51;;;;;;;14.77;10.02;;;;;;;2.79;62.44;100058.81;4863197;29;20497;-83
2022/04/17 00:08:17;;;;;;;16.20;9.25;;;;;;;2.96;62.32;100061.69;4862856;29;20045;-82
2022/04/17 00:10:49;;;;;;;13.88;9.52;;;;;;;3.04;62.00;100056.97;4863295;29;20045;-81
2022/04/17 00:13:15;;;;;;;14.32;8.73;;;;;;;3.07;61.73;100051.56;4879534;29;20052;-83
2022/04/17 00:15:41;;;;;;;17.80;8.88;;;;;;;3.08;61.44;100042.72;4847450;29;20041;-84
2022/04/17 00:18:08;;;;;;;15.68;9.05;;;;;;;3.11;61.25;100050.53;4862793;29;20067;-83
2022/04/17 00:20:37;;;;;;;13.27;9.27;;;;;;;3.08;61.52;100053.28;4832215;29;20052;-84
2022/04/17 00:23:03;;;;;;;15.57;10.07;;;;;;;3.12;61.36;100039.06;4832258;29;20401;-85
2022/04/17 00:25:29;;;;;;;16.42;9.38;;;;;;;2.96;61.37;100051.13;4862278;29;20087;-84
2022/04/17 00:27:55;;;;;;;11.45;8.38;;;;;;;2.83;61.96;100039.31;4862666;29;20045;-83
2022/04/17 00:30:21;;;;;;;10.50;8.02;;;;;;;2.75;62.03;100038.72;4862483;29;20053;-83
2022/04/17 00:32:47;;;;;;;12.32;8.27;;;;;;;2.95;62.17;100041.47;4879073;29;20049;-82
2022/04/17 00:35:12;;;;;;;16.80;8.77;;;;;;;3.09;61.82;100055.03;4862550;29;20044;-83
2022/04/17 00:37:38;;;;;;;14.32;9.05;;;;;;;3.12;62.01;100039.06;4846905;29;20044;-80
2022/04/17 00:40:06;;;;;;;14.43;8.82;;;;;;;3.09;61.77;100038.31;4879241;29;20440;-81
2022/04/17 00:42:32;;;;;;;17.08;8.32;;;;;;;3.01;62.09;100049.19;4879234;29;20060;-81
2022/04/17 00:44:58;;;;;;;17.30;8.30;;;;;;;3.00;62.26;100062.44;4847595;29;20053;-85
2022/04/17 00:47:24;;;;;;;11.40;7.95;;;;;;;3.03;62.26;100065.81;4862452;29;20409;-83
2022/04/17 00:49:49;;;;;;;12.43;8.23;;;;;;;3.04;61.98;100049.03;4879297;29;20052;-82
2022/04/17 00:52:16;;;;;;;11.00;8.10;;;;;;;3.27;61.73;100065.78;4847350;29;20045;-85
2022/04/17 00:54:44;;;;;;;12.50;8.95;;;;;;;3.22;61.48;100065.13;4862656;29;20049;-83
2022/04/17 00:57:12;;;;;;;12.48;8.50;;;;;;;3.30;61.25;100057.75;4832463;29;20055;-82
2022/04/17 00:59:41;;;;;;;12.73;9.13;;;;;;;3.33;61.52;100066.44;4847217;29;20105;-82
2022/04/17 01:02:07;;;;;;;14.75;8.95;;;;;;;3.41;61.47;100058.19;4864317;29;20076;-83
2022/04/17 01:04:33;;;;;;;12.15;9.32;;;;;;;3.58;61.21;100081.34;4838506;29;20108;-82
2022/04/17 01:06:59;;;;;;;15.55;9.90;;;;;;;3.51;60.92;100062.22;4885106;29;20404;-84
2022/04/17 01:09:25;;;;;;;13.73;9.77;;;;;;;3.63;60.94;100072.28;4868059;29;20080;-83
2022/04/17 01:11:51;;;;;;;17.75;10.30;;;;;;;3.62;60.31;100070.56;4868012;29;20040;-83
2022/04/17 01:14:19;;;;;;;13.98;10.45;;;;;;;3.50;60.53;100049.94;4884113;29;20047;-82
2022/04/17 01:16:44;;;;;;;14.52;10.07;;;;;;;3.62;59.99;100070.56;4851920;29;20437;-85
2022/04/17 01:19:13;;;;;;;16.42;10.98;;;;;;;3.55;60.21;100057.66;4885499;29;20045;-85
2022/04/17 01:21:43;;;;;;;16.63;10.65;;;;;;;3.49;60.54;100056.09;4883248;29;20143;-83
2022/04/17 01:26:59;;;;;;;15.98;10.48;;;;;;;3.51;60.59;100064.84;4851183;29;20591;-84
2022/04/17 01:29:34;;;;;;;16.42;8.90;;;;;;;3.57;60.50;100069.91;4850833;29;20497;-83
2022/04/17 01:32:08;;;;;;;13.70;9.52;;;;;;;3.50;60.47;100057.84;4850989;29;20049;-84
2022/04/17 01:34:35;;;;;;;12.25;7.93;;;;;;;3.40;60.42;100064.41;4835096;29;20092;-85
2022/04/17 01:37:02;;;;;;;11.93;8.63;;;;;;;3.27;60.81;100052.59;4850731;29;20041;-83
2022/04/17 01:39:29;;;;;;;12.63;9.35;;;;;;;3.27;60.79;100052.59;4883153;29;20101;-84
2022/04/17 01:41:56;;;;;;;15.48;10.00;;;;;;;3.43;60.47;100064.31;4882441;29;20099;-83
2022/04/17 01:44:24;;;;;;;15.40;10.40;;;;;;;3.28;60.68;100039.34;4866516;29;20041;-84
2022/04/17 01:46:51;;;;;;;17.15;11.63;;;;;;;3.37;60.91;100060.09;4844320;29;20188;-85
2022/04/17 01:49:18;;;;;;;15.27;11.25;;;;;;;3.40;60.84;100064.41;4873482;29;20053;-84
2022/04/17 01:51:46;;;;;;;16.83;9.93;;;;;;;3.57;61.06;100066.38;4839616;29;20064;-84
2022/04/17 01:54:14;;;;;;;14.95;9.70;;;;;;;3.76;60.62;100077.06;4851847;29;20060;-83
2022/04/17 01:56:42;;;;;;;12.77;9.40;;;;;;;3.89;60.09;100073.03;4850167;29;20051;-85
2022/04/17 01:59:09;;;;;;;12.43;9.65;;;;;;;3.90;59.99;100069.44;4881988;29;20131;-84
2022/04/17 02:01:37;;;;;;;15.05;10.05;;;;;;;3.89;59.62;100080.97;4865383;29;20041;-83
2022/04/17 02:04:05;;;;;;;11.82;8.95;;;;;;;3.85;60.01;100079.38;4849879;29;20576;-85
2022/04/17 02:06:31;;;;;;;12.25;9.15;;;;;;;3.76;60.10;100077.06;4849870;29;20051;-85
2022/04/17 02:08:58;;;;;;;11.75;7.70;;;;;;;3.61;60.18;100074.16;4849942;29;20088;-85
2022/04/17 02:11:26;;;;;;;14.15;7.93;;;;;;;3.54;61.01;100077.97;4882015;29;20095;-85
2022/04/17 02:13:52;;;;;;;10.35;8.18;;;;;;;3.50;61.07;100083.41;4848831;29;20560;-84
2022/04/17 02:16:19;;;;;;;9.13;6.75;;;;;;;3.54;60.67;100080.59;4865205;29;20490;-85
2022/04/17 02:18:46;;;;;;;11.80;7.00;;;;;;;3.48;60.66;100083.47;4864793;29;20056;-85
2022/04/17 02:21:13;;;;;;;13.27;7.47;;;;;;;3.45;61.13;100082.72;4865047;29;20053;-84
2022/04/17 02:23:41;;;;;;;10.20;7.35;;;;;;;3.29;61.34;100082.47;4849380;29;20045;-84
2022/04/17 02:26:08;;;;;;;8.52;7.53;;;;;;;3.41;61.75;100084.63;4846598;29;20053;-86
2022/04/17 02:28:38;;;;;;;14.85;8.27;;;;;;;3.56;61.54;100097.25;4856210;29;20121;-85
2022/04/17 02:31:05;;;;;;;11.98;8.02;;;;;;;3.65;60.95;100098.69;4834189;29;20068;-87
2022/04/17 02:33:31;;;;;;;14.00;8.80;;;;;;;3.67;60.73;100098.59;4849198;29;20048;-85
2022/04/17 02:35:58;;;;;;;16.23;8.07;;;;;;;3.86;60.81;100104.88;4864674;29;20108;-85
2022/04/17 02:38:26;;;;;;;15.00;8.05;;;;;;;4.04;60.44;100101.50;4864598;29;20057;-86
2022/04/17 02:40:53;;;;;;;12.88;7.97;;;;;;;4.26;60.31;100103.25;4834526;29;20052;-83
2022/04/17 02:43:19;;;;;;;18.42;8.68;;;;;;;4.29;59.01;100092.53;4864374;29;20052;-87
2022/04/17 02:45:45;;;;;;;15.93;8.90;;;;;;;4.28;59.15;100101.38;4864607;29;20044;-85
2022/04/17 02:48:10;;;;;;;15.95;9.65;;;;;;;4.33;58.76;100094.13;4862675;29;20048;-86
2022/04/17 02:50:36;;;;;;;16.52;8.80;;;;;;;4.22;59.06;100096.38;4871437;29;20502;-85
2022/04/17 02:53:02;;;;;;;15.70;9.27;;;;;;;3.92;59.72;100091.41;4845701;29;20045;-86
2022/04/17 02:55:28;;;;;;;12.15;9.75;;;;;;;3.93;59.82;100095.78;4862597;29;20053;-85
2022/04/17 02:57:55;;;;;;;18.75;11.00;;;;;;;3.97;59.54;100091.22;4861194;29;20049;-84
2022/04/17 03:00:21;;;;;;;17.85;10.30;;;;;;;4.04;59.88;100096.19;4862914;29;20050;-83
2022/04/17 03:05:37;;;;;;;23.40;9.30;;;;;;;4.59;59.72;100101.81;4835403;29;20052;-85
2022/04/17 03:08:15;;;;;;;15.25;9.57;;;;;;;4.80;58.77;100097.34;4846752;29;20092;-85
2022/04/17 03:10:42;;;;;;;16.38;9.75;;;;;;;4.91;57.72;100085.44;4845530;29;20505;-84
2022/04/17 03:13:09;;;;;;;16.05;9.82;;;;;;;4.64;57.46;100085.72;4849708;29;20049;-86
2022/04/17 03:15:40;;;;;;;27.38;9.57;;;;;;;4.50;57.92;100070.44;4871770;29;20100;-85
2022/04/17 03:18:09;;;;;;;23.77;8.77;;;;;;;4.34;58.31;100066.72;4841395;29;20443;-84
2022/04/17 03:20:35;;;;;;;35.17;9.63;;;;;;;4.28;59.10;100069.63;4842479;29;20523;-84
2022/04/17 03:23:01;;;;;;;23.27;8.90;;;;;;;4.63;58.87;100073.41;4871927;29;20041;-85
2022/04/17 03:25:29;;;;;;;19.05;8.48;;;;;;;4.99;58.39;100075.34;4855840;29;20477;-83
2022/04/17 03:27:57;;;;;;;14.07;8.48;;;;;;;5.28;58.07;100084.63;4872870;29;20119;-82
2022/04/17 03:30:24;;;;;;;10.80;8.10;;;;;;;5.57;57.53;100081.44;4858687;29;20044;-86
2022/04/17 03:32:51;;;;;;;15.77;8.00;;;;;;;5.87;57.05;100080.91;4851296;29;20512;-81
2022/04/17 03:35:18;;;;;;;12.85;7.15;;;;;;;6.12;55.65;100071.75;4851004;29;20037;-83
2022/04/17 03:37:45;;;;;;;16.73;6.90;;;;;;;6.16;55.09;100070.66;4851281;29;20113;-87
2022/04/17 03:40:13;;;;;;;9.70;6.80;;;;;;;5.93;55.30;100072.66;4881763;29;20125;-83
2022/04/17 03:42:39;;;;;;;13.00;7.00;;;;;;;5.92;54.74;100076.25;4898610;29;20083;-84
2022/04/17 03:45:07;;;;;;;15.32;6.60;;;;;;;6.32;55.43;100082.25;4898658;29;20135;-89
2022/04/17 03:47:34;;;;;;;18.45;7.70;;;;;;;6.35;53.83;100090.03;4867165;29;20515;-85
2022/04/17 03:50:00;;;;;;;11.10;7.22;;;;;;;5.73;54.48;100093.97;4883369;29;20127;-89
2022/04/17 03:52:26;;;;;;;11.95;7.13;;;;;;;5.53;56.13;100095.78;4851032;29;20048;-84
2022/04/17 03:54:52;;;;;;;11.98;7.22;;;;;;;5.38;55.60;100096.53;4882138;29;20091;-84
2022/04/17 03:57:18;;;;;;;9.07;7.03;;;;;;;5.34;55.79;100092.25;4881897;29;20505;-77
2022/04/17 03:59:44;;;;;;;13.25;6.72;;;;;;;5.62;55.86;100099.78;4866458;29;20052;-81
2022/04/17 04:02:10;;;;;;;13.30;7.15;;;;;;;5.85;55.33;100101.34;4863323;29;20053;-84
2022/04/17 04:04:36;;;;;;;11.73;6.35;;;;;;;6.06;55.53;100100.34;4848157;29;20041;-84
2022/04/17 04:07:02;;;;;;;11.60;6.70;;;;;;;6.48;54.94;100101.75;4832621;29;20188;-82
2022/04/17 04:09:28;;;;;;;14.60;6.78;;;;;;;6.84;53.87;100114.06;4879740;29;20045;-76
2022/04/17 04:11:54;;;;;;;8.48;6.25;;;;;;;7.13;53.35;100109.03;4879497;29;20049;-80
2022/04/17 04:14:19;;;;;;;8.02;6.22;;;;;;;7.34;52.92;100107.88;4862194;29;20049;-81
2022/04/17 04:16:45;;;;;;;7.50;6.35;;;;;;;7.54;52.37;100109.44;4887583;29;20044;-82
2022/04/17 04:19:12;;;;;;;11.05;7.53;;;;;;;7.22;50.97;100103.19;4881822;29;20133;-76
2022/04/17 04:21:47;;;;;;;15.15;7.75;;;;;;;7.42;51.81;100094.16;4898674;29;20103;-86
2022/04/17 04:24:20;;;;;;;16.38;7.68;;;;;;;7.62;51.85;100090.38;4843398;29;20061;-85
2022/04/17 04:28:33;;;;;;;11.60;7.43;;;;;;;7.84;50.96;100112.19;4832300;29;20049;-83
2022/04/17 04:29:37;;;;;;;9.80;6.60;;;;;;;8.10;50.38;100104.50;4862329;29;20132;-86
2022/04/17 04:32:03;;;;;;;11.32;6.60;;;;;;;8.30;49.37;100114.84;4847484;29;20045;-84
2022/04/17 04:34:29;;;;;;;10.32;6.13;;;;;;;8.26;49.03;100114.19;4847019;29;20044;-85
2022/04/17 04:36:55;;;;;;;9.48;6.63;;;;;;;8.17;49.54;100100.56;4847856;29;20037;-84
2022/04/17 04:39:21;;;;;;;13.43;7.25;;;;;;;8.22;49.44;100093.16;4847704;29;20624;-81
2022/04/17 04:41:46;;;;;;;15.68;7.55;;;;;;;7.97;48.95;100102.56;4879145;29;20100;-87
2022/04/17 04:44:13;;;;;;;15.60;7.30;;;;;;;7.96;49.34;100094.66;4847262;29;20052;-82
2022/04/17 04:46:38;;;;;;;17.05;8.02;;;;;;;8.09;49.42;100095.69;4878111;29;20048;-84
2022/04/17 04:51:50;;;;;;;81.20;12.40;;;;;;;7.86;48.86;100107.63;4869759;29;20496;-81
2022/04/17 04:54:16;;;;;;;30.35;10.57;;;;;;;7.76;49.30;100093.13;4879903;29;20044;-80
2022/04/17 04:56:42;;;;;;;20.15;9.02;;;;;;;7.90;49.65;100079.91;4885562;29;20080;-80
2022/04/17 04:59:11;;;;;;;24.20;8.60;;;;;;;7.84;48.71;100088.22;4829298;29;20805;-79
2022/04/17 05:01:37;;;;;;;11.57;8.07;;;;;;;7.88;49.21;100092.44;4829168;29;20045;-81
2022/04/17 05:04:04;;;;;;;13.57;7.55;;;;;;;7.52;49.12;100101.53;4828670;29;20432;-82
2022/04/17 05:06:30;;;;;;;10.02;7.60;;;;;;;7.30;49.57;100101.00;4844467;29;20049;-81
2022/04/17 05:08:56;;;;;;;15.65;7.60;;;;;;;7.28;50.24;100089.56;4844308;29;20049;-80
2022/04/17 05:11:23;;;;;;;31.83;7.28;;;;;;;7.70;50.21;100081.00;4877840;29;20101;-80
2022/04/17 05:13:49;;;;;;;22.25;7.40;;;;;;;7.95;49.69;100084.94;4877214;29;20057;-79
2022/04/17 05:16:15;;;;;;;14.43;7.30;;;;;;;8.31;49.02;100079.28;4829760;29;20072;-81
2022/04/17 05:18:42;;;;;;;8.57;5.88;;;;;;;8.51;48.97;100091.47;4831074;29;20509;-80
2022/04/17 05:21:08;;;;;;;11.75;6.70;;;;;;;8.85;48.38;100079.63;4828317;29;20511;-82
2022/04/17 05:23:36;;;;;;;14.63;6.47;;;;;;;8.96;47.78;100076.31;4844858;29;20105;-80
2022/04/17 05:26:03;;;;;;;15.45;6.78;;;;;;;8.41;46.63;100083.16;4860255;29;20049;-80
2022/04/17 05:28:30;;;;;;;11.45;6.88;;;;;;;7.73;48.34;100093.28;4844651;29;20052;-83
2022/04/17 05:30:57;;;;;;;15.55;6.80;;;;;;;7.35;49.89;100103.41;4829578;29;20101;-83
2022/04/17 05:33:25;;;;;;;19.25;7.15;;;;;;;7.69;49.70;100102.41;4860339;29;20049;-85
2022/04/17 05:35:52;;;;;;;19.13;7.32;;;;;;;8.07;49.48;100096.69;4844817;29;20037;-84
2022/04/17 05:38:20;;;;;;;13.98;6.80;;;;;;;8.15;48.78;100089.97;4844874;29;20508;-81
2022/04/17 05:40:53;;;;;;;10.00;6.65;;;;;;;7.73;48.49;100085.31;4860211;29;20060;-80
2022/04/17 05:43:20;;;;;;;16.75;6.78;;;;;;;7.83;49.45;100105.16;4834987;29;20449;-85
2022/04/17 05:45:57;;;;;;;8.50;6.30;;;;;;;8.18;49.07;100099.59;4839407;29;20684;-83
2022/04/17 05:48:23;;;;;;;16.05;6.40;;;;;;;8.56;48.18;100093.84;4859912;29;20460;-81
2022/04/17 05:50:50;;;;;;;8.85;6.20;;;;;;;8.84;47.47;100104.59;4839910;29;20049;-83
2022/04/17 05:53:17;;;;;;;8.45;6.10;;;;;;;8.99;47.32;100092.97;4822584;29;20560;-82
2022/04/17 05:55:43;;;;;;;8.93;6.20;;;;;;;9.32;47.08;100094.47;4860081;29;20137;-83
2022/04/17 05:58:09;;;;;;;12.20;6.35;;;;;;;9.54;46.17;100091.31;4844836;29;20193;-84
2022/04/17 06:00:36;;;;;;;15.13;5.72;;;;;;;9.17;45.53;100106.09;4814267;29;20057;-82
2022/04/17 06:03:03;;;;;;;7.80;5.70;;;;;;;9.17;46.71;100095.44;4844778;29;20135;-79
2022/04/17 06:05:30;;;;;;;9.63;5.43;;;;;;;9.00;46.21;100093.81;4844842;29;20049;-81
2022/04/17 06:07:56;;;;;;;13.45;5.85;;;;;;;9.05;46.30;100091.72;4844565;29;20045;-81
2022/04/17 06:10:22;;;;;;;6.88;5.72;;;;;;;9.19;46.00;100093.53;4844422;29;20049;-82
2022/04/17 06:12:48;;;;;;;12.57;5.35;;;;;;;9.20;46.23;100084.59;4844320;29;20458;-80
2022/04/17 06:15:14;;;;;;;10.73;5.78;;;;;;;9.03;46.06;100087.44;4828849;29;20045;-82
2022/04/17 06:17:43;;;;;;;8.65;6.05;;;;;;;9.11;46.18;100085.16;4844533;29;20045;-82
2022/04/17 06:20:12;;;;;;;6.90;6.20;;;;;;;9.23;46.42;100084.41;4859713;29;20049;-81
2022/04/17 06:22:40;;;;;;;9.43;6.20;;;;;;;9.24;46.41;100091.44;4844374;29;20060;-85
2022/04/17 06:25:08;;;;;;;13.88;6.55;;;;;;;8.84;46.65;100077.91;4843511;29;20114;-83
2022/04/17 06:27:44;;;;;;;29.40;6.63;;;;;;;8.93;47.41;100076.50;4862571;29;20053;-85
2022/04/17 06:30:18;;;;;;;13.77;6.22;;;;;;;8.83;46.76;100070.00;4847224;29;20044;-80
2022/04/17 06:32:44;;;;;;;9.07;5.93;;;;;;;8.61;47.45;100075.78;4856294;29;20054;-80
2022/04/17 06:35:13;;;;;;;9.80;6.68;;;;;;;8.49;47.65;100075.56;4842314;29;20139;-81
2022/04/17 06:37:56;;;;;;;15.13;7.07;;;;;;;8.84;47.94;100069.91;4865394;29;20048;-80
2022/04/17 06:40:27;;;;;;;10.88;6.82;;;;;;;8.63;47.63;100084.53;4881159;29;20045;-81
2022/04/17 06:42:58;;;;;;;8.70;6.20;;;;;;;8.59;47.67;100088.34;4865451;29;20052;-81
2022/04/17 06:45:25;;;;;;;17.20;6.40;;;;;;;8.30;47.50;100074.91;4850027;29;20049;-81
2022/04/17 06:47:51;;;;;;;8.32;6.20;;;;;;;8.43;47.37;100073.28;4865900;29;20420;-81
2022/04/17 06:50:22;;;;;;;14.70;6.85;;;;;;;8.31;47.67;100076.59;4831245;29;20045;-83
2022/04/17 06:52:49;;;;;;;9.35;5.95;;;;;;;8.12;47.44;100057.34;4845508;29;20053;-82
2022/04/17 06:55:16;;;;;;;10.98;6.68;;;;;;;7.72;48.15;100070.28;4844734;29;20052;-80
2022/04/17 06:57:49;;;;;;;22.05;7.90;;;;;;;7.36;49.06;100049.25;4846858;29;20685;-84
2022/04/17 07:00:17;;;;;;;11.63;6.65;;;;;;;7.45;49.35;100046.97;4876362;29;20041;-84
2022/04/17 07:02:45;;;;;;;16.23;7.30;;;;;;;7.85;49.07;100034.03;4845476;29;20136;-82
2022/04/17 07:05:13;;;;;;;8.13;6.68;;;;;;;8.56;48.76;100061.88;4861241;29;20060;-83
2022/04/17 07:07:40;;;;;;;17.95;7.25;;;;;;;8.94;47.56;100062.19;4860805;29;20055;-83
2022/04/17 07:10:07;;;;;;;15.73;7.15;;;;;;;8.68;46.56;100067.31;4845024;29;20065;-81
2022/04/17 07:12:34;;;;;;;9.73;6.35;;;;;;;8.59;46.23;100051.03;4845683;29;20429;-84
2022/04/17 07:15:02;;;;;;;19.70;8.20;;;;;;;9.09;46.24;100071.91;4845171;29;20048;-83
2022/04/17 07:17:36;;;;;;;15.23;7.18;;;;;;;9.33;45.85;100052.69;4860289;29;20052;-82
2022/04/17 07:20:07;;;;;;;24.67;8.70;;;;;;;9.55;44.78;100057.47;4844810;29;20145;-81
2022/04/17 07:22:34;;;;;;;19.10;8.07;;;;;;;9.40;44.90;100065.53;4860304;29;20041;-82
2022/04/17 07:25:01;;;;;;;19.90;9.05;;;;;;;9.40;44.62;100057.53;4843870;29;20061;-83
2022/04/17 07:27:36;;;;;;;18.27;9.37;;;;;;;9.12;45.22;100061.06;4841968;29;20049;-84
2022/04/17 07:30:18;;;;;;;27.13;9.82;;;;;;;9.57;45.23;100045.75;4827164;29;20299;-83
2022/04/17 07:32:50;;;;;;;15.18;10.20;;;;;;;9.96;45.32;100052.94;4828187;29;20054;-82
2022/04/17 07:35:18;;;;;;;16.50;9.85;;;;;;;10.33;44.11;100044.31;4828232;29;20045;-83
2022/04/17 07:38:04;;;;;;;20.75;10.15;;;;;;;10.47;43.32;100057.63;4829045;29;20193;-89
2022/04/17 07:40:31;;;;;;;20.52;10.30;;;;;;;10.49;43.43;100050.31;4845707;29;20057;-82
2022/04/17 07:43:00;;;;;;;24.65;11.70;;;;;;;10.52;44.05;100059.97;4830324;29;20170;-88
2022/04/17 07:45:27;;;;;;;26.00;12.82;;;;;;;10.49;44.80;100044.13;4814447;29;20050;-83
2022/04/17 07:47:53;;;;;;;33.55;16.50;;;;;;;10.37;44.83;100046.69;4815111;29;20517;-87
2022/04/17 07:50:23;;;;;;;20.65;15.20;;;;;;;10.57;44.99;100044.47;4848979;29;20091;-89
2022/04/17 07:52:50;;;;;;;27.60;15.52;;;;;;;10.93;44.59;100039.22;4836493;29;20037;-86
2022/04/17 07:55:16;;;;;;;30.50;15.82;;;;;;;11.09;43.77;100040.81;4853255;29;20058;-82
2022/04/17 07:58:01;;;;;;;28.85;15.07;;;;;;;10.53;44.09;100045.63;4861636;29;20417;-84
2022/04/17 08:00:32;;;;;;;29.60;16.23;;;;;;;10.57;45.08;100041.78;4863704;29;20049;-83
2022/04/17 08:03:20;;;;;;;40.28;15.23;;;;;;;10.30;45.82;100044.53;4876655;29;20504;-82
2022/04/17 08:05:47;;;;;;;27.33;15.97;;;;;;;10.10;45.79;100043.19;4863842;29;20479;-87
2022/04/17 08:08:13;;;;;;;24.15;15.75;;;;;;;10.19;45.43;100034.53;4848756;29;20164;-89
2022/04/17 08:10:40;;;;;;;26.13;15.48;;;;;;;10.37;45.36;100033.31;4865947;29;20075;-88
2022/04/17 08:13:06;;;;;;;25.20;15.73;;;;;;;10.70;45.28;100022.13;4865076;29;20045;-88
2022/04/17 08:15:33;;;;;;;24.70;14.98;;;;;;;11.08;44.49;100018.56;4880464;29;20052;-88
2022/04/17 08:17:58;;;;;;;17.80;13.02;;;;;;;10.87;44.16;100026.31;4880648;29;20135;-87
2022/04/17 08:20:25;;;;;;;20.40;13.18;;;;;;;11.10;45.03;100029.19;4865975;29;20490;-85
2022/04/17 08:22:51;;;;;;;18.83;12.38;;;;;;;11.01;44.08;100022.63;4881116;29;20543;-87
2022/04/17 08:25:16;;;;;;;18.98;12.90;;;;;;;11.12;44.43;100011.19;4865522;29;20092;-84
2022/04/17 08:27:46;;;;;;;21.23;13.35;;;;;;;11.31;44.55;100010.69;4883505;29;20139;-84
2022/04/17 08:30:12;;;;;;;;;;;;;;;11.56;43.50;100009.78;4835057;29;20067;-85
2022/04/17 08:32:37;;;;;;;30.20;13.10;;;;;;;11.87;42.86;100008.38;4872969;29;20371;-82
2022/04/17 08:35:06;;;;;;;17.77;12.50;;;;;;;12.30;42.69;100011.38;4862477;29;20053;-82
2022/04/17 08:37:31;;;;;;;22.42;11.70;;;;;;;12.56;42.33;100011.16;4861071;29;20049;-83
2022/04/17 08:39:57;;;;;;;15.30;10.00;;;;;;;12.40;41.39;100006.13;4845310;29;20515;-83
2022/04/17 08:42:25;;;;;;;13.40;8.88;;;;;;;12.69;41.98;100006.56;4829202;29;20041;-83
2022/04/17 08:44:51;;;;;;;30.65;11.65;;;;;;;13.09;41.11;100011.47;4854347;29;20056;-84
2022/04/17 08:47:19;;;;;;;24.33;11.23;;;;;;;13.40;40.75;100000.97;4844056;29;20045;-82
2022/04/17 08:49:45;;;;;;;18.05;11.13;;;;;;;13.21;40.57;100002.44;4859553;29;20114;-82
2022/04/17 08:52:15;;;;;;;23.02;11.82;;;;;;;13.26;38.49;100004.78;4844871;29;20520;-83
2022/04/17 08:54:46;;;;;;;22.95;12.30;;;;;;;13.54;38.58;100003.38;4843800;29;20106;-83
2022/04/17 08:57:12;;;;;;;26.92;12.13;;;;;;;13.88;38.30;100000.56;4843569;29;20089;-82
2022/04/17 08:59:38;;;;;;;22.90;12.70;;;;;;;14.07;37.72;100007.00;4859091;29;20079;-83
2022/04/17 09:02:10;;;;;;;21.67;13.00;;;;;;;14.25;37.73;99999.19;4844079;29;20050;-83
2022/04/17 09:04:38;;;;;;;29.00;13.07;;;;;;;14.58;37.43;99989.25;4858991;29;20116;-83
2022/04/17 09:07:07;;;;;;;22.73;13.38;;;;;;;14.64;36.12;99994.13;4845400;29;20053;-84
2022/04/17 09:09:38;;;;;;;24.67;12.48;;;;;;;14.60;35.73;99986.44;4837032;29;20056;-83
2022/04/17 09:12:04;;;;;;;24.08;13.48;;;;;;;14.92;35.98;99991.69;4870495;29;20044;-84
2022/04/17 09:14:30;;;;;;;28.70;12.57;;;;;;;14.88;35.66;99980.34;4871548;29;20053;-82
2022/04/17 09:16:56;;;;;;;26.33;12.38;;;;;;;14.99;36.25;99980.25;4840966;29;20052;-83
2022/04/17 09:19:25;;;;;;;29.20;11.65;;;;;;;14.33;34.75;99977.91;4816368;29;20053;-82
2022/04/17 09:21:55;;;;;;;34.67;12.38;;;;;;;14.28;35.53;99988.19;4815115;29;20054;-83
2022/04/17 09:24:27;;;;;;;26.50;13.43;;;;;;;14.04;35.31;99993.81;4809341;29;20062;-85
2022/04/17 09:26:58;;;;;;;31.25;12.43;;;;;;;14.29;35.92;99992.59;4834751;29;20046;-83
2022/04/17 09:29:29;;;;;;;31.88;12.20;;;;;;;14.29;35.09;99984.53;4835756;29;20074;-83
2022/04/17 09:32:01;;;;;;;41.10;11.95;;;;;;;14.43;33.65;99964.50;4819558;29;20112;-84
2022/04/17 09:34:41;;;;;;;29.42;12.25;;;;;;;14.16;34.21;99970.41;4830929;29;20223;-83
2022/04/17 09:37:20;;;;;;;37.15;12.30;;;;;;;14.72;35.52;99970.09;4833837;29;20057;-83
2022/04/17 09:39:47;;;;;;;33.17;12.85;;;;;;;15.29;34.12;99970.44;4832835;29;20546;-84
2022/04/17 09:42:19;;;;;;;25.70;12.60;;;;;;;15.64;32.97;99971.78;4834825;29;20052;-83
2022/04/17 09:44:47;;;;;;;33.22;13.02;;;;;;;16.00;32.76;99973.84;4817431;29;20121;-83
2022/04/17 09:47:17;;;;;;;24.15;12.40;;;;;;;16.23;31.41;99968.13;4831318;29;20038;-83
2022/04/17 09:50:06;;;;;;;37.72;12.00;;;;;;;16.28;31.24;99965.84;4817071;29;20545;-82
2022/04/17 09:52:44;;;;;;;31.13;12.45;;;;;;;16.50;30.86;99959.28;4811956;29;20110;-84
2022/04/17 09:55:12;;;;;;;28.07;12.30;;;;;;;16.96;30.63;99957.59;4817567;29;20502;-85
2022/04/17 09:57:45;;;;;;;33.00;11.25;;;;;;;17.27;29.37;99962.72;4876871;29;20555;-83
2022/04/17 10:00:12;;;;;;;32.45;11.25;;;;;;;17.34;29.26;99950.28;4858976;29;20047;-84
2022/04/17 10:02:41;;;;;;;28.90;11.20;;;;;;;17.11;27.85;99953.44;4874769;29;20089;-83
2022/04/17 10:05:09;;;;;;;32.33;12.45;;;;;;;16.78;28.08;99945.91;4864861;29;20036;-84
2022/04/17 10:07:39;;;;;;;27.08;11.40;;;;;;;16.50;28.47;99943.09;4856009;29;20048;-85
2022/04/17 10:10:07;;;;;;;20.33;10.82;;;;;;;16.52;28.15;99938.41;4872767;29;20047;-84
2022/04/17 10:12:36;;;;;;;30.70;11.70;;;;;;;16.60;28.15;99943.06;4855207;29;20172;-83
2022/04/17 10:15:04;;;;;;;43.15;11.05;;;;;;;17.14;28.60;99947.69;4856733;29;20045;-83
2022/04/17 10:17:31;;;;;;;31.08;11.48;;;;;;;17.97;27.52;99939.47;4873554;29;20052;-85
2022/04/17 10:20:12;;;;;;;38.92;11.93;;;;;;;18.40;26.91;99935.09;4875447;29;20037;-84
2022/04/17 10:22:39;;;;;;;19.85;10.40;;;;;;;18.85;25.98;99934.03;4858117;29;20043;-83
2022/04/17 10:25:08;;;;;;;34.25;11.68;;;;;;;19.14;26.03;99934.53;4856593;29;20523;-86
2022/04/17 10:27:37;;;;;;;21.55;11.30;;;;;;;19.38;25.55;99931.03;4874999;29;20053;-85
2022/04/17 10:30:02;;;;;;;;;;;;;;;19.67;25.29;99934.34;4870295;29;20506;-83
2022/04/17 10:32:35;;;;;;;24.98;11.57;;;;;;;19.55;24.47;99914.78;4872277;29;19923;-86
2022/04/17 10:35:08;;;;;;;29.85;10.57;;;;;;;19.70;24.78;99915.03;4884920;29;20140;-85
2022/04/17 10:38:12;;;;;;;27.15;11.27;;;;;;;19.84;25.10;99919.78;4883349;29;20048;-84
2022/04/17 10:40:38;;;;;;;24.85;11.02;;;;;;;20.01;24.20;99917.91;4838561;29;20124;-83
2022/04/17 10:43:06;;;;;;;27.80;11.30;;;;;;;19.81;24.49;99906.56;4864950;29;20497;-83
2022/04/17 10:45:32;;;;;;;22.83;11.18;;;;;;;19.85;24.48;99911.47;4862323;29;20113;-83
2022/04/17 10:48:09;;;;;;;27.10;11.82;;;;;;;20.01;24.45;99904.34;4845541;29;20520;-83
2022/04/17 10:50:50;;;;;;;28.08;12.82;;;;;;;20.00;24.72;99900.78;4862149;29;20041;-83
2022/04/17 10:53:49;;;;;;;33.03;12.27;;;;;;;20.49;24.47;99903.47;4861866;29;20041;-84
2022/04/17 10:56:15;;;;;;;;;;;;;;;21.00;24.24;99901.28;4861094;29;20053;-82
2022/04/17 10:58:50;;;;;;;35.28;13.73;;;;;;;21.22;23.52;99896.09;4845282;29;19927;-83
2022/04/17 11:01:16;;;;;;;22.67;11.63;;;;;;;21.30;23.41;99901.50;4845814;29;20077;-84
2022/04/17 11:03:55;;;;;;;30.83;11.75;;;;;;;21.30;23.08;99890.63;4830391;29;20553;-85
2022/04/17 11:06:30;;;;;;;29.58;12.02;;;;;;;20.94;23.32;99872.09;4860667;29;20045;-84
2022/04/17 11:09:20;;;;;;;22.25;11.60;;;;;;;21.51;22.27;99893.59;4860712;29;20516;-84
2022/04/17 11:11:47;;;;;;;25.77;11.40;;;;;;;21.40;22.40;99885.84;4845229;29;20041;-84
2022/04/17 11:14:26;;;;;;;32.30;11.90;;;;;;;21.85;22.57;99875.13;4845616;29;20042;-82
2022/04/17 11:16:59;;;;;;;;;;;;;;;21.87;21.63;99879.38;4845546;29;20046;-84
2022/04/17 11:19:28;;;;;;;21.80;11.57;;;;;;;22.50;21.64;99880.00;4861927;29;19927;-84
2022/04/17 11:21:59;;;;;;;28.45;10.35;;;;;;;23.17;20.69;99870.84;4860787;29;20354;-84
2022/04/17 11:24:27;;;;;;;23.75;11.25;;;;;;;23.60;20.73;99870.91;4844938;29;20144;-84
2022/04/17 11:26:53;;;;;;;23.08;10.70;;;;;;;23.69;20.24;99862.41;4844998;29;20117;-85
2022/04/17 11:29:48;;;;;;;25.85;11.65;;;;;;;23.66;20.06;99862.84;4844893;29;20415;-84
2022/04/17 11:32:17;;;;;;;32.60;11.35;;;;;;;23.23;21.04;99867.34;4844908;29;20517;-84
2022/04/17 11:34:43;;;;;;;;;;;;;;;22.77;20.66;99851.25;4845003;29;20053;-84
2022/04/17 11:37:10;;;;;;;36.20;11.95;;;;;;;22.04;21.14;99850.97;4844668;29;20033;-83
2022/04/17 11:39:38;;;;;;;30.90;11.07;;;;;;;22.13;21.30;99848.19;4844904;29;20555;-84